sensor_id;sensor_type;location;lat;lon;timestamp;pressure;altitude;pressure_sealevel;temperature;humidity
29941;BME280;16801;53.562;10.038;2024-02-14T00:03:09;101563.22;;;6.16;100.00
29941;BME280;16801;53.562;10.038;2024-02-14T00:06:40;101560.13;;;6.08;100.00
29941;BME280;16801;53.562;10.038;2024-02-14T00:10:04;101556.25;;;6.28;100.00
29941;BME280;16801;53.562;10.038;2024-02-14T00:13:26;101560.66;;;6.29;100.00
29941;BME280;16801;53.562;10.038;2024-02-14T00:16:47;101562.47;;;6.28;100.00
29941;BME280;16801;53.562;10.038;2024-02-14T00:20:09;101562.28;;;6.17;100.00
29941;BME280;16801;53.562;10.038;2024-02-14T00:23:33;101557.38;;;6.10;100.00
29941;BME280;16801;53.562;10.038;2024-02-14T00:26:53;101552.88;;;6.10;100.00
29941;BME280;16801;53.562;10.038;2024-02-14T00:30:16;101552.00;;;6.10;100.00
29941;BME280;16801;53.562;10.038;2024-02-14T00:33:37;101555.72;;;6.07;100.00
29941;BME280;16801;53.562;10.038;2024-02-14T00:36:58;101548.28;;;6.12;100.00
29941;BME280;16801;53.562;10.038;2024-02-14T00:40:21;101547.06;;;6.18;100.00
29941;BME280;16801;53.562;10.038;2024-02-14T00:43:42;101537.31;;;6.17;100.00
29941;BME280;16801;53.562;10.038;2024-02-14T00:47:03;101534.50;;;6.04;100.00
29941;BME280;16801;53.562;10.038;2024-02-14T00:50:24;101534.72;;;6.15;100.00
29941;BME280;16801;53.562;10.038;2024-02-14T00:53:45;101539.78;;;6.20;100.00
29941;BME280;16801;53.562;10.038;2024-02-14T00:57:07;101536.81;;;6.10;100.00
29941;BME280;16801;53.562;10.038;2024-02-14T01:00:28;101536.91;;;6.09;100.00
29941;BME280;16801;53.562;10.038;2024-02-14T01:03:49;101537.69;;;6.11;100.00
29941;BME280;16801;53.562;10.038;2024-02-14T01:07:10;101534.53;;;6.18;100.00
29941;BME280;16801;53.562;10.038;2024-02-14T01:10:33;101532.28;;;5.97;100.00
29941;BME280;16801;53.562;10.038;2024-02-14T01:13:56;101531.34;;;5.98;100.00
29941;BME280;16801;53.562;10.038;2024-02-14T01:17:17;101523.81;;;6.04;100.00
29941;BME280;16801;53.562;10.038;2024-02-14T01:20:38;101526.28;;;6.07;100.00
29941;BME280;16801;53.562;10.038;2024-02-14T01:23:59;101524.84;;;6.02;100.00
29941;BME280;16801;53.562;10.038;2024-02-14T01:27:20;101521.00;;;5.92;100.00
29941;BME280;16801;53.562;10.038;2024-02-14T01:30:43;101518.50;;;5.89;100.00
29941;BME280;16801;53.562;10.038;2024-02-14T01:34:04;101525.22;;;5.80;100.00
29941;BME280;16801;53.562;10.038;2024-02-14T01:37:25;101514.50;;;5.96;100.00
29941;BME280;16801;53.562;10.038;2024-02-14T01:40:47;101511.50;;;5.86;100.00
29941;BME280;16801;53.562;10.038;2024-02-14T01:44:09;101507.53;;;5.93;100.00
29941;BME280;16801;53.562;10.038;2024-02-14T01:47:31;101512.56;;;5.84;100.00
29941;BME280;16801;53.562;10.038;2024-02-14T01:50:52;101500.72;;;5.72;100.00
29941;BME280;16801;53.562;10.038;2024-02-14T01:54:16;101506.06;;;5.72;100.00
29941;BME280;16801;53.562;10.038;2024-02-14T01:57:38;101499.53;;;5.62;100.00
29941;BME280;16801;53.562;10.038;2024-02-14T02:00:59;101500.94;;;5.53;100.00
29941;BME280;16801;53.562;10.038;2024-02-14T02:04:22;101500.06;;;5.53;100.00
29941;BME280;16801;53.562;10.038;2024-02-14T02:07:44;101491.44;;;5.63;100.00
29941;BME280;16801;53.562;10.038;2024-02-14T02:11:07;101491.22;;;5.52;100.00
29941;BME280;16801;53.562;10.038;2024-02-14T02:14:28;101486.44;;;5.57;100.00
29941;BME280;16801;53.562;10.038;2024-02-14T02:17:49;101479.13;;;5.61;100.00
29941;BME280;16801;53.562;10.038;2024-02-14T02:21:14;101479.59;;;5.67;100.00
29941;BME280;16801;53.562;10.038;2024-02-14T02:24:36;101479.13;;;5.61;100.00
29941;BME280;16801;53.562;10.038;2024-02-14T02:27:57;101469.47;;;5.58;100.00
29941;BME280;16801;53.562;10.038;2024-02-14T02:31:21;101460.31;;;5.62;100.00
29941;BME280;16801;53.562;10.038;2024-02-14T02:34:42;101464.97;;;5.59;100.00
29941;BME280;16801;53.562;10.038;2024-02-14T02:38:05;101460.56;;;5.58;100.00
29941;BME280;16801;53.562;10.038;2024-02-14T02:41:28;101450.78;;;5.73;100.00
29941;BME280;16801;53.562;10.038;2024-02-14T02:44:50;101447.22;;;5.88;100.00
29941;BME280;16801;53.562;10.038;2024-02-14T02:48:11;101454.22;;;5.90;100.00
29941;BME280;16801;53.562;10.038;2024-02-14T02:51:32;101448.28;;;5.99;100.00
29941;BME280;16801;53.562;10.038;2024-02-14T02:54:53;101432.16;;;5.71;100.00
29941;BME280;16801;53.562;10.038;2024-02-14T02:58:15;101431.44;;;5.67;100.00
29941;BME280;16801;53.562;10.038;2024-02-14T03:01:36;101430.25;;;5.73;100.00
29941;BME280;16801;53.562;10.038;2024-02-14T03:04:57;101429.88;;;5.79;100.00
29941;BME280;16801;53.562;10.038;2024-02-14T03:08:18;101431.06;;;5.89;100.00
29941;BME280;16801;53.562;10.038;2024-02-14T03:11:41;101433.09;;;5.86;100.00
29941;BME280;16801;53.562;10.038;2024-02-14T03:15:07;101432.72;;;5.92;100.00
29941;BME280;16801;53.562;10.038;2024-02-14T03:18:29;101421.13;;;5.61;100.00
29941;BME280;16801;53.562;10.038;2024-02-14T03:21:50;101424.31;;;5.68;100.00
29941;BME280;16801;53.562;10.038;2024-02-14T03:25:12;101420.22;;;5.77;100.00
29941;BME280;16801;53.562;10.038;2024-02-14T03:28:34;101419.91;;;5.67;100.00
29941;BME280;16801;53.562;10.038;2024-02-14T03:31:56;101409.72;;;5.74;100.00
29941;BME280;16801;53.562;10.038;2024-02-14T03:35:18;101407.31;;;5.69;100.00
29941;BME280;16801;53.562;10.038;2024-02-14T03:38:40;101403.66;;;5.70;100.00
29941;BME280;16801;53.562;10.038;2024-02-14T03:42:02;101396.53;;;5.71;100.00
29941;BME280;16801;53.562;10.038;2024-02-14T03:45:27;101385.41;;;5.62;100.00
29941;BME280;16801;53.562;10.038;2024-02-14T03:48:50;101385.97;;;5.53;100.00
29941;BME280;16801;53.562;10.038;2024-02-14T03:52:12;101392.56;;;5.62;100.00
29941;BME280;16801;53.562;10.038;2024-02-14T03:55:33;101392.41;;;5.65;100.00
29941;BME280;16801;53.562;10.038;2024-02-14T03:58:54;101391.53;;;5.64;100.00
29941;BME280;16801;53.562;10.038;2024-02-14T04:02:16;101387.69;;;5.54;100.00
29941;BME280;16801;53.562;10.038;2024-02-14T04:05:39;101385.22;;;5.65;100.00
29941;BME280;16801;53.562;10.038;2024-02-14T04:09:00;101373.47;;;5.68;100.00
29941;BME280;16801;53.562;10.038;2024-02-14T04:12:21;101383.03;;;5.58;100.00
29941;BME280;16801;53.562;10.038;2024-02-14T04:15:42;101377.63;;;5.74;100.00
29941;BME280;16801;53.562;10.038;2024-02-14T04:19:03;101384.38;;;5.65;100.00
29941;BME280;16801;53.562;10.038;2024-02-14T04:22:26;101382.53;;;5.51;100.00
29941;BME280;16801;53.562;10.038;2024-02-14T04:25:47;101373.72;;;5.49;100.00
29941;BME280;16801;53.562;10.038;2024-02-14T04:29:08;101367.03;;;5.42;100.00
29941;BME280;16801;53.562;10.038;2024-02-14T04:32:29;101363.91;;;5.50;100.00
29941;BME280;16801;53.562;10.038;2024-02-14T04:35:50;101369.44;;;5.47;100.00
29941;BME280;16801;53.562;10.038;2024-02-14T04:39:12;101356.66;;;5.52;100.00
29941;BME280;16801;53.562;10.038;2024-02-14T04:42:33;101354.66;;;5.26;100.00
29941;BME280;16801;53.562;10.038;2024-02-14T04:45:54;101348.78;;;5.35;100.00
29941;BME280;16801;53.562;10.038;2024-02-14T04:49:15;101352.75;;;5.28;100.00
29941;BME280;16801;53.562;10.038;2024-02-14T04:52:36;101348.69;;;5.36;100.00
29941;BME280;16801;53.562;10.038;2024-02-14T04:55:59;101342.88;;;5.30;100.00
29941;BME280;16801;53.562;10.038;2024-02-14T04:59:20;101326.22;;;5.25;100.00
29941;BME280;16801;53.562;10.038;2024-02-14T05:02:40;101333.13;;;5.43;100.00
29941;BME280;16801;53.562;10.038;2024-02-14T05:06:02;101328.94;;;5.39;100.00
29941;BME280;16801;53.562;10.038;2024-02-14T05:09:23;101327.91;;;5.55;100.00
29941;BME280;16801;53.562;10.038;2024-02-14T05:12:45;101326.38;;;5.65;100.00
29941;BME280;16801;53.562;10.038;2024-02-14T05:16:07;101326.09;;;5.42;100.00
29941;BME280;16801;53.562;10.038;2024-02-14T05:19:30;101320.00;;;5.54;100.00
29941;BME280;16801;53.562;10.038;2024-02-14T05:22:51;101323.47;;;5.40;100.00
29941;BME280;16801;53.562;10.038;2024-02-14T05:26:12;101321.00;;;5.37;100.00
29941;BME280;16801;53.562;10.038;2024-02-14T05:29:34;101322.25;;;5.32;100.00
29941;BME280;16801;53.562;10.038;2024-02-14T05:32:55;101320.63;;;5.43;100.00
29941;BME280;16801;53.562;10.038;2024-02-14T05:36:16;101320.03;;;5.38;100.00
29941;BME280;16801;53.562;10.038;2024-02-14T05:39:37;101323.59;;;5.53;100.00
29941;BME280;16801;53.562;10.038;2024-02-14T05:42:58;101324.44;;;5.39;100.00
29941;BME280;16801;53.562;10.038;2024-02-14T05:46:20;101316.34;;;5.55;100.00
29941;BME280;16801;53.562;10.038;2024-02-14T05:49:41;101319.53;;;5.76;100.00
29941;BME280;16801;53.562;10.038;2024-02-14T05:53:03;101317.31;;;5.82;100.00
29941;BME280;16801;53.562;10.038;2024-02-14T05:56:24;101313.72;;;5.97;100.00
29941;BME280;16801;53.562;10.038;2024-02-14T05:59:45;101317.94;;;5.87;100.00
29941;BME280;16801;53.562;10.038;2024-02-14T06:03:07;101306.25;;;5.74;100.00
29941;BME280;16801;53.562;10.038;2024-02-14T06:06:28;101312.06;;;5.81;100.00
29941;BME280;16801;53.562;10.038;2024-02-14T06:09:49;101314.38;;;5.58;100.00
29941;BME280;16801;53.562;10.038;2024-02-14T06:13:10;101304.31;;;5.76;100.00
29941;BME280;16801;53.562;10.038;2024-02-14T06:16:32;101312.72;;;5.70;100.00
29941;BME280;16801;53.562;10.038;2024-02-14T06:19:55;101300.13;;;5.58;100.00
29941;BME280;16801;53.562;10.038;2024-02-14T06:23:16;101293.91;;;5.72;100.00
29941;BME280;16801;53.562;10.038;2024-02-14T06:26:37;101290.97;;;5.76;100.00
29941;BME280;16801;53.562;10.038;2024-02-14T06:29:58;101290.56;;;5.68;100.00
29941;BME280;16801;53.562;10.038;2024-02-14T06:33:20;101292.03;;;5.74;100.00
29941;BME280;16801;53.562;10.038;2024-02-14T06:36:44;101296.31;;;5.76;100.00
29941;BME280;16801;53.562;10.038;2024-02-14T06:40:07;101288.50;;;5.73;100.00
29941;BME280;16801;53.562;10.038;2024-02-14T06:43:30;101290.28;;;5.73;100.00
29941;BME280;16801;53.562;10.038;2024-02-14T06:46:51;101302.41;;;5.78;100.00
29941;BME280;16801;53.562;10.038;2024-02-14T06:50:11;101286.94;;;5.83;100.00
29941;BME280;16801;53.562;10.038;2024-02-14T06:53:34;101295.09;;;5.82;100.00
29941;BME280;16801;53.562;10.038;2024-02-14T06:56:55;101291.94;;;5.89;100.00
29941;BME280;16801;53.562;10.038;2024-02-14T07:00:17;101302.00;;;5.86;100.00
29941;BME280;16801;53.562;10.038;2024-02-14T07:03:38;101285.84;;;5.87;100.00
29941;BME280;16801;53.562;10.038;2024-02-14T07:07:00;101291.78;;;5.92;100.00
29941;BME280;16801;53.562;10.038;2024-02-14T07:10:22;101301.41;;;5.95;100.00
29941;BME280;16801;53.562;10.038;2024-02-14T07:13:43;101293.84;;;6.01;100.00
29941;BME280;16801;53.562;10.038;2024-02-14T07:17:04;101295.19;;;6.08;100.00
29941;BME280;16801;53.562;10.038;2024-02-14T07:20:24;101290.22;;;6.02;100.00
29941;BME280;16801;53.562;10.038;2024-02-14T07:23:49;101294.13;;;5.97;100.00
29941;BME280;16801;53.562;10.038;2024-02-14T07:27:14;101295.66;;;6.01;100.00
29941;BME280;16801;53.562;10.038;2024-02-14T07:30:36;101298.81;;;5.93;100.00
29941;BME280;16801;53.562;10.038;2024-02-14T07:33:57;101296.81;;;5.97;100.00
29941;BME280;16801;53.562;10.038;2024-02-14T07:37:18;101299.97;;;6.03;100.00
29941;BME280;16801;53.562;10.038;2024-02-14T07:40:39;101299.38;;;6.12;100.00
29941;BME280;16801;53.562;10.038;2024-02-14T07:44:02;101294.28;;;6.22;100.00
29941;BME280;16801;53.562;10.038;2024-02-14T07:47:24;101295.38;;;6.19;100.00
29941;BME280;16801;53.562;10.038;2024-02-14T07:50:45;101292.69;;;6.19;100.00
29941;BME280;16801;53.562;10.038;2024-02-14T07:54:06;101296.78;;;6.25;100.00
29941;BME280;16801;53.562;10.038;2024-02-14T07:57:27;101292.47;;;6.22;100.00
29941;BME280;16801;53.562;10.038;2024-02-14T08:00:49;101289.03;;;6.20;100.00
29941;BME280;16801;53.562;10.038;2024-02-14T08:04:10;101284.06;;;6.28;100.00
29941;BME280;16801;53.562;10.038;2024-02-14T08:07:31;101284.56;;;6.21;100.00
29941;BME280;16801;53.562;10.038;2024-02-14T08:10:52;101291.53;;;6.23;100.00
29941;BME280;16801;53.562;10.038;2024-02-14T08:14:13;101283.41;;;6.52;100.00
29941;BME280;16801;53.562;10.038;2024-02-14T08:17:36;101279.47;;;7.23;100.00
29941;BME280;16801;53.562;10.038;2024-02-14T08:20:57;101276.38;;;7.54;100.00
29941;BME280;16801;53.562;10.038;2024-02-14T08:24:18;101274.41;;;7.94;100.00
29941;BME280;16801;53.562;10.038;2024-02-14T08:27:39;101279.50;;;7.61;100.00
29941;BME280;16801;53.562;10.038;2024-02-14T08:31:00;101278.19;;;7.66;100.00
29941;BME280;16801;53.562;10.038;2024-02-14T08:34:22;101280.25;;;7.50;100.00
29941;BME280;16801;53.562;10.038;2024-02-14T08:37:43;101275.00;;;6.97;100.00
29941;BME280;16801;53.562;10.038;2024-02-14T08:41:04;101279.19;;;6.88;100.00
29941;BME280;16801;53.562;10.038;2024-02-14T08:44:25;101273.50;;;6.93;100.00
29941;BME280;16801;53.562;10.038;2024-02-14T08:47:46;101281.91;;;7.13;100.00
29941;BME280;16801;53.562;10.038;2024-02-14T08:51:08;101273.22;;;7.10;100.00
29941;BME280;16801;53.562;10.038;2024-02-14T08:54:30;101278.03;;;7.05;100.00
29941;BME280;16801;53.562;10.038;2024-02-14T08:57:52;101281.13;;;6.99;100.00
29941;BME280;16801;53.562;10.038;2024-02-14T09:01:13;101284.69;;;7.12;100.00
29941;BME280;16801;53.562;10.038;2024-02-14T09:04:33;101284.69;;;7.12;100.00
29941;BME280;16801;53.562;10.038;2024-02-14T09:07:56;101281.81;;;7.15;100.00
29941;BME280;16801;53.562;10.038;2024-02-14T09:11:17;101284.16;;;7.07;100.00
29941;BME280;16801;53.562;10.038;2024-02-14T09:14:39;101285.09;;;7.06;100.00
29941;BME280;16801;53.562;10.038;2024-02-14T09:18:00;101289.28;;;7.10;100.00
29941;BME280;16801;53.562;10.038;2024-02-14T09:21:22;101283.53;;;7.28;100.00
29941;BME280;16801;53.562;10.038;2024-02-14T09:24:45;101288.47;;;7.47;100.00
29941;BME280;16801;53.562;10.038;2024-02-14T09:28:06;101282.59;;;7.42;100.00
29941;BME280;16801;53.562;10.038;2024-02-14T09:31:27;101278.06;;;7.55;100.00
29941;BME280;16801;53.562;10.038;2024-02-14T09:34:50;101276.38;;;7.54;100.00
29941;BME280;16801;53.562;10.038;2024-02-14T09:38:11;101280.69;;;7.57;100.00
29941;BME280;16801;53.562;10.038;2024-02-14T09:41:36;101283.34;;;7.69;100.00
29941;BME280;16801;53.562;10.038;2024-02-14T09:44:59;101283.78;;;7.63;100.00
29941;BME280;16801;53.562;10.038;2024-02-14T09:48:20;101293.00;;;7.72;100.00
29941;BME280;16801;53.562;10.038;2024-02-14T09:51:43;101287.00;;;7.68;100.00
29941;BME280;16801;53.562;10.038;2024-02-14T09:55:05;101283.03;;;7.74;100.00
29941;BME280;16801;53.562;10.038;2024-02-14T09:58:28;101288.59;;;7.83;100.00
29941;BME280;16801;53.562;10.038;2024-02-14T10:01:49;101286.66;;;7.98;100.00
29941;BME280;16801;53.562;10.038;2024-02-14T10:05:10;101290.94;;;8.00;100.00
29941;BME280;16801;53.562;10.038;2024-02-14T10:08:32;101286.94;;;8.19;100.00
29941;BME280;16801;53.562;10.038;2024-02-14T10:11:53;101297.69;;;8.19;100.00
29941;BME280;16801;53.562;10.038;2024-02-14T10:15:15;101295.44;;;8.25;100.00
29941;BME280;16801;53.562;10.038;2024-02-14T10:18:36;101293.81;;;8.35;100.00
29941;BME280;16801;53.562;10.038;2024-02-14T10:21:57;101303.59;;;8.36;100.00
29941;BME280;16801;53.562;10.038;2024-02-14T10:25:18;101310.13;;;8.45;100.00
29941;BME280;16801;53.562;10.038;2024-02-14T10:28:41;101304.06;;;8.54;100.00
29941;BME280;16801;53.562;10.038;2024-02-14T10:32:04;101307.69;;;8.65;100.00
29941;BME280;16801;53.562;10.038;2024-02-14T10:35:25;101305.16;;;8.75;100.00
29941;BME280;16801;53.562;10.038;2024-02-14T10:38:47;101312.56;;;8.84;100.00
29941;BME280;16801;53.562;10.038;2024-02-14T10:42:09;101306.38;;;8.95;100.00
29941;BME280;16801;53.562;10.038;2024-02-14T10:45:30;101310.63;;;8.97;100.00
29941;BME280;16801;53.562;10.038;2024-02-14T10:48:54;101318.53;;;9.11;100.00
29941;BME280;16801;53.562;10.038;2024-02-14T10:52:17;101312.06;;;9.14;100.00
29941;BME280;16801;53.562;10.038;2024-02-14T10:55:40;101313.94;;;9.24;100.00
29941;BME280;16801;53.562;10.038;2024-02-14T10:59:02;101322.00;;;9.24;100.00
29941;BME280;16801;53.562;10.038;2024-02-14T11:02:25;101314.44;;;9.29;100.00
29941;BME280;16801;53.562;10.038;2024-02-14T11:05:48;101319.59;;;9.32;100.00
29941;BME280;16801;53.562;10.038;2024-02-14T11:09:11;101320.44;;;9.33;100.00
29941;BME280;16801;53.562;10.038;2024-02-14T11:12:36;101326.47;;;9.36;100.00
29941;BME280;16801;53.562;10.038;2024-02-14T11:15:59;101317.19;;;9.40;100.00
29941;BME280;16801;53.562;10.038;2024-02-14T11:19:43;101314.97;;;9.45;100.00
29941;BME280;16801;53.562;10.038;2024-02-14T11:23:06;101323.56;;;9.50;100.00
29941;BME280;16801;53.562;10.038;2024-02-14T11:26:38;101317.84;;;9.55;100.00
29941;BME280;16801;53.562;10.038;2024-02-14T11:29:59;101314.66;;;9.61;100.00
29941;BME280;16801;53.562;10.038;2024-02-14T11:33:21;101325.06;;;9.65;100.00
29941;BME280;16801;53.562;10.038;2024-02-14T11:36:44;101323.00;;;9.69;100.00
29941;BME280;16801;53.562;10.038;2024-02-14T11:40:08;101327.91;;;9.75;100.00
29941;BME280;16801;53.562;10.038;2024-02-14T11:43:29;101332.66;;;9.83;100.00
29941;BME280;16801;53.562;10.038;2024-02-14T11:46:51;101333.53;;;9.83;100.00
29941;BME280;16801;53.562;10.038;2024-02-14T11:50:13;101335.13;;;9.86;100.00
29941;BME280;16801;53.562;10.038;2024-02-14T11:53:34;101340.28;;;9.89;100.00
29941;BME280;16801;53.562;10.038;2024-02-14T11:56:59;101328.53;;;9.90;100.00
29941;BME280;16801;53.562;10.038;2024-02-14T12:00:20;101338.94;;;9.94;100.00
29941;BME280;16801;53.562;10.038;2024-02-14T12:03:41;101332.56;;;9.95;100.00
29941;BME280;16801;53.562;10.038;2024-02-14T12:07:02;101339.41;;;9.99;100.00
29941;BME280;16801;53.562;10.038;2024-02-14T12:10:23;101331.09;;;10.02;97.76
29941;BME280;16801;53.562;10.038;2024-02-14T12:13:50;101348.00;;;10.04;93.98
29941;BME280;16801;53.562;10.038;2024-02-14T12:17:11;101337.75;;;10.09;91.46
29941;BME280;16801;53.562;10.038;2024-02-14T12:20:33;101334.59;;;10.15;89.20
29941;BME280;16801;53.562;10.038;2024-02-14T12:23:58;101347.56;;;10.21;87.85
29941;BME280;16801;53.562;10.038;2024-02-14T12:27:19;101341.81;;;10.26;86.87
29941;BME280;16801;53.562;10.038;2024-02-14T12:30:45;101346.19;;;10.27;85.37
29941;BME280;16801;53.562;10.038;2024-02-14T12:34:10;101344.25;;;10.29;85.05
29941;BME280;16801;53.562;10.038;2024-02-14T12:37:31;101347.56;;;10.32;63.61
29941;BME280;16801;53.562;10.038;2024-02-14T12:40:53;101346.22;;;10.38;63.27
29941;BME280;16801;53.562;10.038;2024-02-14T12:44:14;101351.34;;;10.41;62.01
29941;BME280;16801;53.562;10.038;2024-02-14T12:47:36;101353.94;;;10.42;60.55
29941;BME280;16801;53.562;10.038;2024-02-14T12:50:58;101354.91;;;10.41;59.49
29941;BME280;16801;53.562;10.038;2024-02-14T12:54:19;101355.75;;;10.42;56.15
29941;BME280;16801;53.562;10.038;2024-02-14T12:57:40;101351.72;;;10.36;53.84
29941;BME280;16801;53.562;10.038;2024-02-14T13:01:00;101354.44;;;10.36;50.34
29941;BME280;16801;53.562;10.038;2024-02-14T13:04:26;101352.56;;;10.37;46.32
29941;BME280;16801;53.562;10.038;2024-02-14T13:07:47;101358.09;;;10.35;40.99
29941;BME280;16801;53.562;10.038;2024-02-14T13:11:10;101361.66;;;10.36;32.74
29941;BME280;16801;53.562;10.038;2024-02-14T13:14:31;101361.66;;;10.36;21.68
29941;BME280;16801;53.562;10.038;2024-02-14T13:17:52;101363.34;;;10.37;14.55
29941;BME280;16801;53.562;10.038;2024-02-14T13:21:15;101357.72;;;10.40;9.05
29941;BME280;16801;53.562;10.038;2024-02-14T13:24:37;101359.31;;;10.42;5.23
29941;BME280;16801;53.562;10.038;2024-02-14T13:27:58;101357.22;;;10.46;2.86
29941;BME280;16801;53.562;10.038;2024-02-14T13:31:19;101360.66;;;10.48;1.79
29941;BME280;16801;53.562;10.038;2024-02-14T13:34:40;101368.38;;;10.53;0.00
29941;BME280;16801;53.562;10.038;2024-02-14T13:38:02;101370.06;;;10.54;0.00
29941;BME280;16801;53.562;10.038;2024-02-14T13:41:23;101367.38;;;10.54;0.00
29941;BME280;16801;53.562;10.038;2024-02-14T13:44:44;101356.59;;;10.54;0.00
29941;BME280;16801;53.562;10.038;2024-02-14T13:48:05;101366.53;;;10.53;0.00
29941;BME280;16801;53.562;10.038;2024-02-14T13:51:27;101372.41;;;10.58;0.00
29941;BME280;16801;53.562;10.038;2024-02-14T13:54:49;101370.19;;;10.63;0.42
29941;BME280;16801;53.562;10.038;2024-02-14T13:58:10;101364.69;;;10.65;2.03
29941;BME280;16801;53.562;10.038;2024-02-14T14:01:36;101372.78;;;10.65;3.59
29941;BME280;16801;53.562;10.038;2024-02-14T14:04:57;101370.81;;;10.67;5.09
29941;BME280;16801;53.562;10.038;2024-02-14T14:08:18;101375.97;;;10.70;5.88
29941;BME280;16801;53.562;10.038;2024-02-14T14:11:41;101372.13;;;10.72;7.61
29941;BME280;16801;53.562;10.038;2024-02-14T14:15:02;101371.41;;;10.70;9.30
29941;BME280;16801;53.562;10.038;2024-02-14T14:18:24;101372.25;;;10.71;10.80
29941;BME280;16801;53.562;10.038;2024-02-14T14:21:44;101373.25;;;10.70;13.15
29941;BME280;16801;53.562;10.038;2024-02-14T14:25:06;101386.00;;;10.68;13.95
29941;BME280;16801;53.562;10.038;2024-02-14T14:28:30;101382.59;;;10.66;14.20
29941;BME280;16801;53.562;10.038;2024-02-14T14:31:52;101375.34;;;10.66;14.30
29941;BME280;16801;53.562;10.038;2024-02-14T14:35:13;101372.91;;;10.63;13.82
29941;BME280;16801;53.562;10.038;2024-02-14T14:38:35;101383.81;;;10.62;13.69
29941;BME280;16801;53.562;10.038;2024-02-14T14:41:56;101381.22;;;10.60;13.32
29941;BME280;16801;53.562;10.038;2024-02-14T14:45:19;101386.63;;;10.60;12.00
29941;BME280;16801;53.562;10.038;2024-02-14T14:48:41;101386.88;;;10.57;11.24
29941;BME280;16801;53.562;10.038;2024-02-14T14:52:02;101385.28;;;10.55;8.83
29941;BME280;16801;53.562;10.038;2024-02-14T14:55:23;101391.53;;;10.55;6.96
29941;BME280;16801;53.562;10.038;2024-02-14T14:58:44;101386.88;;;10.57;6.55
29941;BME280;16801;53.562;10.038;2024-02-14T15:02:06;101379.75;;;10.56;5.75
29941;BME280;16801;53.562;10.038;2024-02-14T15:05:27;101386.88;;;10.57;5.21
29941;BME280;16801;53.562;10.038;2024-02-14T15:08:48;101391.28;;;10.58;4.64
29941;BME280;16801;53.562;10.038;2024-02-14T15:12:09;101392.75;;;10.62;3.76
29941;BME280;16801;53.562;10.038;2024-02-14T15:15:31;101390.03;;;10.62;4.92
29941;BME280;16801;53.562;10.038;2024-02-14T15:18:54;101394.47;;;10.63;4.62
29941;BME280;16801;53.562;10.038;2024-02-14T15:22:15;101396.06;;;10.66;5.89
29941;BME280;16801;53.562;10.038;2024-02-14T15:25:36;101394.09;;;10.68;6.77
29941;BME280;16801;53.562;10.038;2024-02-14T15:28:59;101401.19;;;10.69;8.66
29941;BME280;16801;53.562;10.038;2024-02-14T15:32:34;101394.69;;;10.71;10.07
29941;BME280;16801;53.562;10.038;2024-02-14T15:36:14;101398.13;;;10.73;11.92
29941;BME280;16801;53.562;10.038;2024-02-14T15:39:36;101393.59;;;10.74;14.19
29941;BME280;16801;53.562;10.038;2024-02-14T15:42:57;101392.59;;;10.75;16.04
29941;BME280;16801;53.562;10.038;2024-02-14T15:46:19;101392.50;;;10.76;18.95
29941;BME280;16801;53.562;10.038;2024-02-14T15:49:41;101394.47;;;10.74;21.32
29941;BME280;16801;53.562;10.038;2024-02-14T15:53:05;101387.22;;;10.75;23.84
29941;BME280;16801;53.562;10.038;2024-02-14T15:56:26;101393.34;;;10.77;26.36
29941;BME280;16801;53.562;10.038;2024-02-14T15:59:47;101401.69;;;10.74;29.56
29941;BME280;16801;53.562;10.038;2024-02-14T16:03:09;101399.00;;;10.74;31.29
29941;BME280;16801;53.562;10.038;2024-02-14T16:06:31;101398.88;;;10.75;33.45
29941;BME280;16801;53.562;10.038;2024-02-14T16:09:55;101398.00;;;10.75;34.69
29941;BME280;16801;53.562;10.038;2024-02-14T16:13:16;101399.72;;;10.76;38.78
29941;BME280;16801;53.562;10.038;2024-02-14T16:16:37;101395.19;;;10.76;40.37
29941;BME280;16801;53.562;10.038;2024-02-14T16:19:58;101405.25;;;10.74;40.89
29941;BME280;16801;53.562;10.038;2024-02-14T16:23:21;101412.13;;;10.78;42.17
29941;BME280;16801;53.562;10.038;2024-02-14T16:26:44;101410.25;;;10.79;44.23
29941;BME280;16801;53.562;10.038;2024-02-14T16:30:08;101412.22;;;10.77;45.44
29941;BME280;16801;53.562;10.038;2024-02-14T16:33:30;101416.50;;;10.79;45.92
29941;BME280;16801;53.562;10.038;2024-02-14T16:36:51;101412.13;;;10.78;46.14
29941;BME280;16801;53.562;10.038;2024-02-14T16:40:12;101414.06;;;10.76;45.67
29941;BME280;16801;53.562;10.038;2024-02-14T16:43:35;101425.97;;;10.74;44.91
29941;BME280;16801;53.562;10.038;2024-02-14T16:46:57;101406.59;;;10.69;43.07
29941;BME280;16801;53.562;10.038;2024-02-14T16:50:18;101407.69;;;10.66;40.98
29941;BME280;16801;53.562;10.038;2024-02-14T16:53:40;101415.78;;;10.66;37.49
29941;BME280;16801;53.562;10.038;2024-02-14T16:57:01;101407.59;;;10.68;34.39
29941;BME280;16801;53.562;10.038;2024-02-14T17:00:30;101403.75;;;10.70;34.34
29941;BME280;16801;53.562;10.038;2024-02-14T17:03:51;101408.06;;;10.73;33.67
29941;BME280;16801;53.562;10.038;2024-02-14T17:07:12;101417.88;;;10.74;34.13
29941;BME280;16801;53.562;10.038;2024-02-14T17:10:34;101417.00;;;10.73;35.95
29941;BME280;16801;53.562;10.038;2024-02-14T17:13:58;101413.34;;;10.74;36.95
29941;BME280;16801;53.562;10.038;2024-02-14T17:17:23;101417.00;;;10.73;38.60
29941;BME280;16801;53.562;10.038;2024-02-14T17:20:44;101421.44;;;10.74;39.80
29941;BME280;16801;53.562;10.038;2024-02-14T17:24:08;101418.59;;;10.76;41.83